This is the latest recevied weather packets stored in our database for station/object K9RCP-24. If no packets are shown the sender has not sent any weather packets the latest 10 day(s).
| Time | Temp. | Humidity | Pressure | Rain* | Wind** | Luminosity | Snow |
|---|---|---|---|---|---|---|---|
| 1777881936 | 17.22° C | 65% | 1011.9 hPa | 0 mm | - | - | - |
| 1777880169 | -17.78° C | 100% | 1011.2 hPa | 0 mm | - | - | - |
| 1777880044 | -17.78° C | 100% | 1011.2 hPa | 0 mm | - | - | - |
| 1777879759 | -17.78° C | 100% | 1011.2 hPa | 0 mm | - | - | - |
| 1777879293 | -17.78° C | 100% | 1011.2 hPa | 0 mm | - | - | - |
| 1777879026 | -17.78° C | 100% | 1011.2 hPa | 0 mm | - | - | - |
| 1777875959 | 25.56° C | 35% | 1010.8 hPa | 0 mm | - | - | - |
| 1777875805 | 25.56° C | 35% | 1010.8 hPa | 0 mm | - | - | - |
| 1777875402 | 25.56° C | 33% | 1010.8 hPa | 0 mm | - | - | - |
| 1777875120 | 25.56° C | 33% | 1010.8 hPa | 0 mm | - | - | - |
| 1777871826 | 26.11° C | 34% | 1010.5 hPa | 0 mm | - | - | - |
| 1777871441 | 26.11° C | 34% | 1010.5 hPa | 0 mm | - | - | - |
| 1777870382 | 26.11° C | 35% | 1010.2 hPa | 0 mm | - | - | - |
| 1777870237 | 26.11° C | 35% | 1010.5 hPa | 0 mm | - | - | - |
| 1777869603 | 26.11° C | 35% | 1010.2 hPa | 0 mm | - | - | - |
| 1777869479 | 26.11° C | 35% | 1010.5 hPa | 0 mm | - | - | - |
| 1777869331 | 26.11° C | 35% | 1010.5 hPa | 0 mm | - | - | - |
| 1777868571 | 25.56° C | 36% | 1010.2 hPa | 0 mm | - | - | - |
| 1777868549 | 25° C | 38% | 1010.5 hPa | 0 mm | - | - | - |
| 1777867793 | 25.56° C | 37% | 1010.5 hPa | 0 mm | - | - | - |
| 1777867545 | 25.56° C | 37% | 1010.2 hPa | 0 mm | - | - | - |
| 1777866596 | 25.56° C | 35% | 1010.2 hPa | 0 mm | - | - | - |
| 1777864690 | 25° C | 38% | 1009.8 hPa | 0 mm | - | - | - |
| 1777862014 | 28.89° C | 33% | 1009.5 hPa | 0 mm | - | - | - |
| 1777861759 | 30° C | 32% | 1009.5 hPa | 0 mm | - | - | - |
* Rain latest hour (hover to see other rain measurements)
** Current wind speed in m/s (hover to see current wind gust speed)